sensor_id;sensor_type;location;lat;lon;timestamp;P1;durP1;ratioP1;P2;durP2;ratioP2
2035;SDS011;23642;42.658;23.350;2023-03-01T00:00:00;69.17;;;64.47;;
2035;SDS011;23642;42.658;23.350;2023-03-01T00:02:29;69.10;;;64.40;;
2035;SDS011;23642;42.658;23.350;2023-03-01T00:04:56;70.30;;;65.40;;
2035;SDS011;23642;42.658;23.350;2023-03-01T00:07:24;67.70;;;63.10;;
2035;SDS011;23642;42.658;23.350;2023-03-01T00:09:51;69.70;;;65.00;;
2035;SDS011;23642;42.658;23.350;2023-03-01T00:12:18;69.83;;;65.10;;
2035;SDS011;23642;42.658;23.350;2023-03-01T00:14:44;70.23;;;65.53;;
2035;SDS011;23642;42.658;23.350;2023-03-01T00:17:16;70.37;;;65.57;;
2035;SDS011;23642;42.658;23.350;2023-03-01T00:19:44;72.50;;;67.50;;
2035;SDS011;23642;42.658;23.350;2023-03-01T00:22:11;70.07;;;65.37;;
2035;SDS011;23642;42.658;23.350;2023-03-01T00:24:37;69.40;;;64.70;;
2035;SDS011;23642;42.658;23.350;2023-03-01T00:27:04;69.67;;;64.87;;
2035;SDS011;23642;42.658;23.350;2023-03-01T00:29:31;70.23;;;65.43;;
2035;SDS011;23642;42.658;23.350;2023-03-01T00:31:58;71.50;;;66.60;;
2035;SDS011;23642;42.658;23.350;2023-03-01T00:34:25;68.93;;;64.23;;
2035;SDS011;23642;42.658;23.350;2023-03-01T00:36:54;71.53;;;66.73;;
2035;SDS011;23642;42.658;23.350;2023-03-01T00:39:20;70.70;;;65.90;;
2035;SDS011;23642;42.658;23.350;2023-03-01T00:41:48;71.60;;;66.80;;
2035;SDS011;23642;42.658;23.350;2023-03-01T00:44:14;70.37;;;65.60;;
2035;SDS011;23642;42.658;23.350;2023-03-01T00:46:42;71.20;;;66.40;;
2035;SDS011;23642;42.658;23.350;2023-03-01T00:49:09;68.53;;;63.93;;
2035;SDS011;23642;42.658;23.350;2023-03-01T00:51:36;68.07;;;63.47;;
2035;SDS011;23642;42.658;23.350;2023-03-01T00:54:05;70.30;;;65.60;;
2035;SDS011;23642;42.658;23.350;2023-03-01T00:56:34;68.47;;;63.87;;
2035;SDS011;23642;42.658;23.350;2023-03-01T00:59:01;68.70;;;64.10;;
2035;SDS011;23642;42.658;23.350;2023-03-01T01:01:28;68.73;;;64.10;;
2035;SDS011;23642;42.658;23.350;2023-03-01T01:03:57;67.93;;;63.40;;
2035;SDS011;23642;42.658;23.350;2023-03-01T01:06:27;67.03;;;62.53;;
2035;SDS011;23642;42.658;23.350;2023-03-01T01:08:55;69.37;;;64.63;;
2035;SDS011;23642;42.658;23.350;2023-03-01T01:11:25;67.90;;;63.40;;
2035;SDS011;23642;42.658;23.350;2023-03-01T01:13:54;66.67;;;62.17;;
2035;SDS011;23642;42.658;23.350;2023-03-01T01:16:22;67.20;;;62.70;;
2035;SDS011;23642;42.658;23.350;2023-03-01T01:18:51;68.80;;;64.10;;
2035;SDS011;23642;42.658;23.350;2023-03-01T01:21:18;66.93;;;62.43;;
2035;SDS011;23642;42.658;23.350;2023-03-01T01:23:48;65.40;;;61.00;;
2035;SDS011;23642;42.658;23.350;2023-03-01T01:26:15;65.73;;;61.33;;
2035;SDS011;23642;42.658;23.350;2023-03-01T01:28:46;67.27;;;62.83;;
2035;SDS011;23642;42.658;23.350;2023-03-01T01:31:13;65.33;;;60.97;;
2035;SDS011;23642;42.658;23.350;2023-03-01T01:33:40;67.37;;;62.87;;
2035;SDS011;23642;42.658;23.350;2023-03-01T01:36:07;67.17;;;62.67;;
2035;SDS011;23642;42.658;23.350;2023-03-01T01:38:34;67.50;;;62.97;;
2035;SDS011;23642;42.658;23.350;2023-03-01T01:41:03;67.50;;;62.90;;
2035;SDS011;23642;42.658;23.350;2023-03-01T01:43:33;68.00;;;63.50;;
2035;SDS011;23642;42.658;23.350;2023-03-01T01:46:03;66.23;;;61.83;;
2035;SDS011;23642;42.658;23.350;2023-03-01T01:48:34;67.40;;;62.90;;
2035;SDS011;23642;42.658;23.350;2023-03-01T01:51:07;67.47;;;63.00;;
2035;SDS011;23642;42.658;23.350;2023-03-01T01:53:39;67.53;;;63.03;;
2035;SDS011;23642;42.658;23.350;2023-03-01T01:56:08;68.00;;;63.47;;
2035;SDS011;23642;42.658;23.350;2023-03-01T01:58:39;68.17;;;63.60;;
2035;SDS011;23642;42.658;23.350;2023-03-01T02:01:10;69.80;;;65.20;;
2035;SDS011;23642;42.658;23.350;2023-03-01T02:03:37;67.50;;;63.00;;
2035;SDS011;23642;42.658;23.350;2023-03-01T02:06:12;66.77;;;62.23;;
2035;SDS011;23642;42.658;23.350;2023-03-01T02:08:44;67.23;;;62.67;;
2035;SDS011;23642;42.658;23.350;2023-03-01T02:11:13;68.93;;;64.33;;
2035;SDS011;23642;42.658;23.350;2023-03-01T02:13:41;69.80;;;65.20;;
2035;SDS011;23642;42.658;23.350;2023-03-01T02:16:10;68.00;;;63.50;;
2035;SDS011;23642;42.658;23.350;2023-03-01T02:18:39;69.40;;;64.80;;
2035;SDS011;23642;42.658;23.350;2023-03-01T02:21:10;68.80;;;64.20;;
2035;SDS011;23642;42.658;23.350;2023-03-01T02:23:52;69.33;;;64.73;;
2035;SDS011;23642;42.658;23.350;2023-03-01T02:26:23;70.23;;;65.53;;
2035;SDS011;23642;42.658;23.350;2023-03-01T02:28:58;68.70;;;64.10;;
2035;SDS011;23642;42.658;23.350;2023-03-01T02:31:26;70.87;;;66.07;;
2035;SDS011;23642;42.658;23.350;2023-03-01T02:34:09;71.80;;;67.00;;
2035;SDS011;23642;42.658;23.350;2023-03-01T02:36:39;72.00;;;67.20;;
2035;SDS011;23642;42.658;23.350;2023-03-01T02:39:08;71.97;;;67.17;;
2035;SDS011;23642;42.658;23.350;2023-03-01T02:41:44;71.80;;;67.00;;
2035;SDS011;23642;42.658;23.350;2023-03-01T02:44:15;71.87;;;67.13;;
2035;SDS011;23642;42.658;23.350;2023-03-01T02:46:43;72.47;;;67.67;;
2035;SDS011;23642;42.658;23.350;2023-03-01T02:49:21;70.60;;;65.80;;
2035;SDS011;23642;42.658;23.350;2023-03-01T02:51:52;72.80;;;67.90;;
2035;SDS011;23642;42.658;23.350;2023-03-01T02:54:36;73.60;;;68.70;;
2035;SDS011;23642;42.658;23.350;2023-03-01T02:57:09;70.40;;;65.70;;
2035;SDS011;23642;42.658;23.350;2023-03-01T02:59:37;73.20;;;68.30;;
2035;SDS011;23642;42.658;23.350;2023-03-01T03:02:07;73.70;;;68.67;;
2035;SDS011;23642;42.658;23.350;2023-03-01T03:04:45;72.53;;;67.63;;
2035;SDS011;23642;42.658;23.350;2023-03-01T03:07:12;72.90;;;68.00;;
2035;SDS011;23642;42.658;23.350;2023-03-01T03:09:39;72.20;;;67.30;;
2035;SDS011;23642;42.658;23.350;2023-03-01T03:12:06;73.03;;;68.23;;
2035;SDS011;23642;42.658;23.350;2023-03-01T03:14:32;75.10;;;70.10;;
2035;SDS011;23642;42.658;23.350;2023-03-01T03:17:01;75.50;;;70.40;;
2035;SDS011;23642;42.658;23.350;2023-03-01T03:19:31;72.80;;;67.87;;
2035;SDS011;23642;42.658;23.350;2023-03-01T03:21:58;75.27;;;70.20;;
2035;SDS011;23642;42.658;23.350;2023-03-01T03:24:25;74.70;;;69.70;;
2035;SDS011;23642;42.658;23.350;2023-03-01T03:26:52;77.93;;;72.63;;
2035;SDS011;23642;42.658;23.350;2023-03-01T03:29:19;73.60;;;68.60;;
2035;SDS011;23642;42.658;23.350;2023-03-01T03:31:46;76.10;;;71.00;;
2035;SDS011;23642;42.658;23.350;2023-03-01T03:34:14;75.57;;;70.43;;
2035;SDS011;23642;42.658;23.350;2023-03-01T03:36:43;74.97;;;69.87;;
2035;SDS011;23642;42.658;23.350;2023-03-01T03:39:10;74.57;;;69.57;;
2035;SDS011;23642;42.658;23.350;2023-03-01T03:41:37;75.60;;;70.60;;
2035;SDS011;23642;42.658;23.350;2023-03-01T03:44:04;74.03;;;69.03;;
2035;SDS011;23642;42.658;23.350;2023-03-01T03:46:30;76.67;;;71.57;;
2035;SDS011;23642;42.658;23.350;2023-03-01T03:48:57;75.80;;;70.60;;
2035;SDS011;23642;42.658;23.350;2023-03-01T03:51:25;75.50;;;70.50;;
2035;SDS011;23642;42.658;23.350;2023-03-01T03:53:52;76.47;;;71.37;;
2035;SDS011;23642;42.658;23.350;2023-03-01T03:56:19;76.70;;;71.50;;
2035;SDS011;23642;42.658;23.350;2023-03-01T03:58:45;74.70;;;69.70;;
2035;SDS011;23642;42.658;23.350;2023-03-01T04:01:48;73.97;;;69.07;;
2035;SDS011;23642;42.658;23.350;2023-03-01T04:04:15;75.67;;;70.50;;
2035;SDS011;23642;42.658;23.350;2023-03-01T04:06:45;73.33;;;68.47;;
2035;SDS011;23642;42.658;23.350;2023-03-01T04:09:13;75.80;;;70.73;;
2035;SDS011;23642;42.658;23.350;2023-03-01T04:11:40;76.20;;;71.20;;
2035;SDS011;23642;42.658;23.350;2023-03-01T04:14:07;75.27;;;70.30;;
2035;SDS011;23642;42.658;23.350;2023-03-01T04:16:34;75.30;;;70.30;;
2035;SDS011;23642;42.658;23.350;2023-03-01T04:19:01;74.67;;;69.70;;
2035;SDS011;23642;42.658;23.350;2023-03-01T04:21:28;75.50;;;70.50;;
2035;SDS011;23642;42.658;23.350;2023-03-01T04:23:57;74.80;;;69.90;;
2035;SDS011;23642;42.658;23.350;2023-03-01T04:26:24;73.53;;;68.63;;
2035;SDS011;23642;42.658;23.350;2023-03-01T04:28:52;73.47;;;68.57;;
2035;SDS011;23642;42.658;23.350;2023-03-01T04:31:19;73.77;;;68.77;;
2035;SDS011;23642;42.658;23.350;2023-03-01T04:33:48;75.17;;;70.17;;
2035;SDS011;23642;42.658;23.350;2023-03-01T04:36:17;78.73;;;73.47;;
2035;SDS011;23642;42.658;23.350;2023-03-01T04:38:46;76.17;;;71.07;;
2035;SDS011;23642;42.658;23.350;2023-03-01T04:41:16;77.80;;;72.60;;
2035;SDS011;23642;42.658;23.350;2023-03-01T04:43:44;76.43;;;71.33;;
2035;SDS011;23642;42.658;23.350;2023-03-01T04:46:12;77.93;;;72.73;;
2035;SDS011;23642;42.658;23.350;2023-03-01T04:48:41;76.47;;;71.00;;
2035;SDS011;23642;42.658;23.350;2023-03-01T04:51:09;76.43;;;71.30;;
2035;SDS011;23642;42.658;23.350;2023-03-01T04:53:38;77.33;;;72.13;;
2035;SDS011;23642;42.658;23.350;2023-03-01T04:56:06;75.77;;;70.60;;
2035;SDS011;23642;42.658;23.350;2023-03-01T04:58:34;77.63;;;72.47;;
2035;SDS011;23642;42.658;23.350;2023-03-01T05:01:01;77.63;;;72.43;;
2035;SDS011;23642;42.658;23.350;2023-03-01T05:03:40;79.50;;;74.20;;
2035;SDS011;23642;42.658;23.350;2023-03-01T05:06:08;78.33;;;72.87;;
2035;SDS011;23642;42.658;23.350;2023-03-01T05:08:35;79.50;;;74.20;;
2035;SDS011;23642;42.658;23.350;2023-03-01T05:11:03;78.60;;;73.30;;
2035;SDS011;23642;42.658;23.350;2023-03-01T05:13:30;78.50;;;73.20;;
2035;SDS011;23642;42.658;23.350;2023-03-01T05:16:02;78.70;;;73.40;;
2035;SDS011;23642;42.658;23.350;2023-03-01T05:18:31;78.23;;;72.93;;
2035;SDS011;23642;42.658;23.350;2023-03-01T05:21:05;77.77;;;72.50;;
2035;SDS011;23642;42.658;23.350;2023-03-01T05:23:34;79.83;;;74.53;;
2035;SDS011;23642;42.658;23.350;2023-03-01T05:26:02;77.37;;;72.10;;
2035;SDS011;23642;42.658;23.350;2023-03-01T05:28:31;77.87;;;72.67;;
2035;SDS011;23642;42.658;23.350;2023-03-01T05:30:58;78.73;;;73.23;;
2035;SDS011;23642;42.658;23.350;2023-03-01T05:33:26;79.20;;;73.90;;
2035;SDS011;23642;42.658;23.350;2023-03-01T05:35:59;77.70;;;72.60;;
2035;SDS011;23642;42.658;23.350;2023-03-01T05:38:26;78.30;;;72.80;;
2035;SDS011;23642;42.658;23.350;2023-03-01T05:40:53;79.00;;;73.80;;
2035;SDS011;23642;42.658;23.350;2023-03-01T05:43:19;77.47;;;72.23;;
2035;SDS011;23642;42.658;23.350;2023-03-01T05:45:46;77.60;;;72.50;;
2035;SDS011;23642;42.658;23.350;2023-03-01T05:48:13;76.23;;;71.13;;
2035;SDS011;23642;42.658;23.350;2023-03-01T05:50:42;77.90;;;72.70;;
2035;SDS011;23642;42.658;23.350;2023-03-01T05:53:11;79.03;;;73.73;;
2035;SDS011;23642;42.658;23.350;2023-03-01T05:55:40;77.60;;;72.50;;
2035;SDS011;23642;42.658;23.350;2023-03-01T05:58:09;75.23;;;69.93;;
2035;SDS011;23642;42.658;23.350;2023-03-01T06:00:39;76.90;;;71.40;;
2035;SDS011;23642;42.658;23.350;2023-03-01T06:03:06;79.67;;;74.17;;
2035;SDS011;23642;42.658;23.350;2023-03-01T06:05:33;79.27;;;73.87;;
2035;SDS011;23642;42.658;23.350;2023-03-01T06:08:01;78.30;;;73.00;;
2035;SDS011;23642;42.658;23.350;2023-03-01T06:10:29;78.13;;;72.87;;
2035;SDS011;23642;42.658;23.350;2023-03-01T06:12:55;80.90;;;75.30;;
2035;SDS011;23642;42.658;23.350;2023-03-01T06:15:23;79.17;;;73.83;;
2035;SDS011;23642;42.658;23.350;2023-03-01T06:17:51;80.83;;;75.43;;
2035;SDS011;23642;42.658;23.350;2023-03-01T06:20:24;80.60;;;75.00;;
2035;SDS011;23642;42.658;23.350;2023-03-01T06:22:52;79.83;;;74.37;;
2035;SDS011;23642;42.658;23.350;2023-03-01T06:25:21;80.80;;;74.40;;
2035;SDS011;23642;42.658;23.350;2023-03-01T06:27:50;76.70;;;71.60;;
2035;SDS011;23642;42.658;23.350;2023-03-01T06:30:19;78.83;;;73.43;;
2035;SDS011;23642;42.658;23.350;2023-03-01T06:32:47;77.27;;;72.17;;
2035;SDS011;23642;42.658;23.350;2023-03-01T06:35:14;81.10;;;75.60;;
2035;SDS011;23642;42.658;23.350;2023-03-01T06:37:43;78.23;;;73.03;;
2035;SDS011;23642;42.658;23.350;2023-03-01T06:40:21;76.50;;;71.20;;
2035;SDS011;23642;42.658;23.350;2023-03-01T06:42:49;77.90;;;72.53;;
2035;SDS011;23642;42.658;23.350;2023-03-01T06:45:16;78.80;;;73.10;;
2035;SDS011;23642;42.658;23.350;2023-03-01T06:47:44;81.07;;;75.67;;
2035;SDS011;23642;42.658;23.350;2023-03-01T06:50:12;79.17;;;73.87;;
2035;SDS011;23642;42.658;23.350;2023-03-01T06:52:39;81.60;;;76.10;;
2035;SDS011;23642;42.658;23.350;2023-03-01T06:55:07;80.57;;;75.03;;
2035;SDS011;23642;42.658;23.350;2023-03-01T06:57:35;81.47;;;75.87;;
2035;SDS011;23642;42.658;23.350;2023-03-01T07:00:03;82.37;;;76.77;;
2035;SDS011;23642;42.658;23.350;2023-03-01T07:02:30;81.60;;;76.10;;
2035;SDS011;23642;42.658;23.350;2023-03-01T07:04:58;79.50;;;74.10;;
2035;SDS011;23642;42.658;23.350;2023-03-01T07:07:26;80.90;;;75.37;;
2035;SDS011;23642;42.658;23.350;2023-03-01T07:09:52;84.37;;;78.47;;
2035;SDS011;23642;42.658;23.350;2023-03-01T07:12:19;80.50;;;75.03;;
2035;SDS011;23642;42.658;23.350;2023-03-01T07:14:47;82.13;;;76.57;;
2035;SDS011;23642;42.658;23.350;2023-03-01T07:17:14;82.90;;;77.20;;
2035;SDS011;23642;42.658;23.350;2023-03-01T07:19:41;83.83;;;77.80;;
2035;SDS011;23642;42.658;23.350;2023-03-01T07:22:08;83.73;;;77.63;;
2035;SDS011;23642;42.658;23.350;2023-03-01T07:24:35;82.70;;;77.20;;
2035;SDS011;23642;42.658;23.350;2023-03-01T07:27:02;84.70;;;78.80;;
2035;SDS011;23642;42.658;23.350;2023-03-01T07:29:29;81.13;;;75.67;;
2035;SDS011;23642;42.658;23.350;2023-03-01T07:31:58;81.57;;;75.97;;
2035;SDS011;23642;42.658;23.350;2023-03-01T07:34:25;84.97;;;79.07;;
2035;SDS011;23642;42.658;23.350;2023-03-01T07:36:54;84.20;;;78.60;;
2035;SDS011;23642;42.658;23.350;2023-03-01T07:39:23;85.90;;;80.20;;
2035;SDS011;23642;42.658;23.350;2023-03-01T07:41:50;86.67;;;80.87;;
2035;SDS011;23642;42.658;23.350;2023-03-01T07:44:17;87.10;;;81.10;;
2035;SDS011;23642;42.658;23.350;2023-03-01T07:46:45;87.30;;;81.40;;
2035;SDS011;23642;42.658;23.350;2023-03-01T07:49:13;88.97;;;82.83;;
2035;SDS011;23642;42.658;23.350;2023-03-01T07:51:52;90.17;;;83.67;;
2035;SDS011;23642;42.658;23.350;2023-03-01T07:54:24;89.90;;;83.53;;
2035;SDS011;23642;42.658;23.350;2023-03-01T07:56:51;88.77;;;82.47;;
2035;SDS011;23642;42.658;23.350;2023-03-01T07:59:20;88.60;;;82.53;;
2035;SDS011;23642;42.658;23.350;2023-03-01T08:01:54;86.30;;;80.50;;
2035;SDS011;23642;42.658;23.350;2023-03-01T08:04:37;88.73;;;82.77;;
2035;SDS011;23642;42.658;23.350;2023-03-01T08:07:04;91.13;;;84.50;;
2035;SDS011;23642;42.658;23.350;2023-03-01T08:09:34;88.97;;;82.97;;
2035;SDS011;23642;42.658;23.350;2023-03-01T08:12:01;91.13;;;84.93;;
2035;SDS011;23642;42.658;23.350;2023-03-01T08:14:29;90.97;;;84.73;;
2035;SDS011;23642;42.658;23.350;2023-03-01T08:16:56;91.63;;;85.13;;
2035;SDS011;23642;42.658;23.350;2023-03-01T08:19:23;88.07;;;82.17;;
2035;SDS011;23642;42.658;23.350;2023-03-01T08:21:51;92.43;;;85.97;;
2035;SDS011;23642;42.658;23.350;2023-03-01T08:24:19;90.20;;;84.10;;
2035;SDS011;23642;42.658;23.350;2023-03-01T08:26:46;91.73;;;85.63;;
2035;SDS011;23642;42.658;23.350;2023-03-01T08:29:14;91.77;;;85.07;;
2035;SDS011;23642;42.658;23.350;2023-03-01T08:31:41;92.03;;;85.77;;
2035;SDS011;23642;42.658;23.350;2023-03-01T08:34:10;89.93;;;83.60;;
2035;SDS011;23642;42.658;23.350;2023-03-01T08:36:40;90.57;;;84.37;;
2035;SDS011;23642;42.658;23.350;2023-03-01T08:42:12;93.00;;;86.53;;
2035;SDS011;23642;42.658;23.350;2023-03-01T08:44:39;89.77;;;83.83;;
2035;SDS011;23642;42.658;23.350;2023-03-01T08:47:06;92.17;;;86.07;;
2035;SDS011;23642;42.658;23.350;2023-03-01T08:49:35;94.80;;;88.10;;
2035;SDS011;23642;42.658;23.350;2023-03-01T08:52:01;95.80;;;89.13;;
2035;SDS011;23642;42.658;23.350;2023-03-01T08:54:30;93.30;;;87.13;;
2035;SDS011;23642;42.658;23.350;2023-03-01T08:57:03;94.43;;;87.83;;
2035;SDS011;23642;42.658;23.350;2023-03-01T08:59:32;96.03;;;89.63;;
2035;SDS011;23642;42.658;23.350;2023-03-01T09:02:02;96.87;;;90.27;;
2035;SDS011;23642;42.658;23.350;2023-03-01T09:04:29;96.50;;;89.90;;
2035;SDS011;23642;42.658;23.350;2023-03-01T09:06:56;98.87;;;91.83;;
2035;SDS011;23642;42.658;23.350;2023-03-01T09:09:27;96.97;;;89.90;;
2035;SDS011;23642;42.658;23.350;2023-03-01T09:11:56;94.87;;;88.67;;
2035;SDS011;23642;42.658;23.350;2023-03-01T09:14:23;96.20;;;89.93;;
2035;SDS011;23642;42.658;23.350;2023-03-01T09:16:53;96.37;;;90.00;;
2035;SDS011;23642;42.658;23.350;2023-03-01T09:19:20;93.93;;;87.73;;
2035;SDS011;23642;42.658;23.350;2023-03-01T09:21:47;93.37;;;86.93;;
2035;SDS011;23642;42.658;23.350;2023-03-01T09:24:19;96.67;;;89.70;;
2035;SDS011;23642;42.658;23.350;2023-03-01T09:26:47;94.30;;;88.00;;
2035;SDS011;23642;42.658;23.350;2023-03-01T09:29:14;96.30;;;89.80;;
2035;SDS011;23642;42.658;23.350;2023-03-01T09:31:42;95.23;;;88.70;;
2035;SDS011;23642;42.658;23.350;2023-03-01T09:34:11;93.80;;;87.70;;
2035;SDS011;23642;42.658;23.350;2023-03-01T09:36:41;94.10;;;87.57;;
2035;SDS011;23642;42.658;23.350;2023-03-01T09:39:08;92.53;;;86.37;;
2035;SDS011;23642;42.658;23.350;2023-03-01T09:41:42;92.50;;;86.40;;
2035;SDS011;23642;42.658;23.350;2023-03-01T09:44:21;94.23;;;87.83;;
2035;SDS011;23642;42.658;23.350;2023-03-01T09:46:56;94.77;;;88.47;;
2035;SDS011;23642;42.658;23.350;2023-03-01T09:49:26;92.40;;;86.20;;
2035;SDS011;23642;42.658;23.350;2023-03-01T09:51:57;91.37;;;85.20;;
2035;SDS011;23642;42.658;23.350;2023-03-01T09:54:26;91.90;;;85.70;;
2035;SDS011;23642;42.658;23.350;2023-03-01T09:57:01;91.80;;;85.60;;
2035;SDS011;23642;42.658;23.350;2023-03-01T09:59:40;93.07;;;86.67;;
2035;SDS011;23642;42.658;23.350;2023-03-01T10:02:23;91.93;;;85.77;;
2035;SDS011;23642;42.658;23.350;2023-03-01T10:04:57;93.33;;;87.13;;
2035;SDS011;23642;42.658;23.350;2023-03-01T10:07:39;93.80;;;87.37;;
2035;SDS011;23642;42.658;23.350;2023-03-01T10:10:16;93.60;;;86.97;;
2035;SDS011;23642;42.658;23.350;2023-03-01T10:12:55;92.23;;;86.03;;
2035;SDS011;23642;42.658;23.350;2023-03-01T10:15:25;91.60;;;85.40;;
2035;SDS011;23642;42.658;23.350;2023-03-01T10:18:01;91.47;;;85.37;;
2035;SDS011;23642;42.658;23.350;2023-03-01T10:20:36;92.30;;;86.20;;
2035;SDS011;23642;42.658;23.350;2023-03-01T10:23:11;91.63;;;85.53;;
2035;SDS011;23642;42.658;23.350;2023-03-01T10:25:42;92.17;;;85.90;;
2035;SDS011;23642;42.658;23.350;2023-03-01T10:28:16;91.07;;;84.53;;
2035;SDS011;23642;42.658;23.350;2023-03-01T10:30:46;94.33;;;87.07;;
2035;SDS011;23642;42.658;23.350;2023-03-01T10:33:17;91.80;;;85.40;;
2035;SDS011;23642;42.658;23.350;2023-03-01T10:35:51;90.40;;;84.03;;
2035;SDS011;23642;42.658;23.350;2023-03-01T10:38:20;93.47;;;87.10;;
2035;SDS011;23642;42.658;23.350;2023-03-01T10:40:52;91.43;;;85.17;;
2035;SDS011;23642;42.658;23.350;2023-03-01T10:43:22;93.67;;;87.47;;
2035;SDS011;23642;42.658;23.350;2023-03-01T10:45:50;95.17;;;88.53;;
2035;SDS011;23642;42.658;23.350;2023-03-01T10:48:18;93.10;;;86.63;;
2035;SDS011;23642;42.658;23.350;2023-03-01T10:51:05;100.20;;;92.57;;
2035;SDS011;23642;42.658;23.350;2023-03-01T10:53:34;95.83;;;89.40;;
2035;SDS011;23642;42.658;23.350;2023-03-01T10:56:03;94.20;;;87.80;;
2035;SDS011;23642;42.658;23.350;2023-03-01T10:58:37;93.60;;;87.40;;
2035;SDS011;23642;42.658;23.350;2023-03-01T11:01:05;93.33;;;87.03;;
2035;SDS011;23642;42.658;23.350;2023-03-01T11:04:08;96.00;;;89.70;;
2035;SDS011;23642;42.658;23.350;2023-03-01T11:06:41;94.50;;;88.27;;
2035;SDS011;23642;42.658;23.350;2023-03-01T11:09:13;93.57;;;87.50;;
2035;SDS011;23642;42.658;23.350;2023-03-01T11:11:41;92.93;;;86.80;;
2035;SDS011;23642;42.658;23.350;2023-03-01T11:14:20;95.73;;;89.43;;
2035;SDS011;23642;42.658;23.350;2023-03-01T11:16:49;95.40;;;89.10;;
2035;SDS011;23642;42.658;23.350;2023-03-01T11:19:26;95.90;;;89.50;;
2035;SDS011;23642;42.658;23.350;2023-03-01T11:21:58;93.10;;;87.10;;
2035;SDS011;23642;42.658;23.350;2023-03-01T11:24:30;95.30;;;89.10;;
2035;SDS011;23642;42.658;23.350;2023-03-01T11:27:03;94.73;;;88.33;;
2035;SDS011;23642;42.658;23.350;2023-03-01T11:29:36;95.43;;;89.20;;
2035;SDS011;23642;42.658;23.350;2023-03-01T11:32:07;93.30;;;87.20;;
2035;SDS011;23642;42.658;23.350;2023-03-01T11:34:39;91.70;;;85.60;;
2035;SDS011;23642;42.658;23.350;2023-03-01T11:37:37;92.97;;;86.70;;
2035;SDS011;23642;42.658;23.350;2023-03-01T11:40:11;93.03;;;86.93;;
2035;SDS011;23642;42.658;23.350;2023-03-01T11:45:33;94.10;;;87.80;;
2035;SDS011;23642;42.658;23.350;2023-03-01T11:48:17;95.00;;;88.70;;
2035;SDS011;23642;42.658;23.350;2023-03-01T11:50:57;95.07;;;88.57;;
2035;SDS011;23642;42.658;23.350;2023-03-01T11:53:36;94.33;;;88.13;;
2035;SDS011;23642;42.658;23.350;2023-03-01T11:56:22;96.00;;;89.30;;
2035;SDS011;23642;42.658;23.350;2023-03-01T12:02:21;98.30;;;91.60;;
2035;SDS011;23642;42.658;23.350;2023-03-01T12:08:29;98.10;;;91.60;;
2035;SDS011;23642;42.658;23.350;2023-03-01T12:11:15;99.30;;;92.63;;
2035;SDS011;23642;42.658;23.350;2023-03-01T12:14:01;98.80;;;92.27;;
2035;SDS011;23642;42.658;23.350;2023-03-01T12:16:47;101.37;;;94.40;;
2035;SDS011;23642;42.658;23.350;2023-03-01T12:19:36;100.23;;;93.30;;
2035;SDS011;23642;42.658;23.350;2023-03-01T12:22:29;100.70;;;93.80;;
2035;SDS011;23642;42.658;23.350;2023-03-01T12:25:04;102.73;;;95.77;;
2035;SDS011;23642;42.658;23.350;2023-03-01T12:27:50;99.93;;;92.63;;
2035;SDS011;23642;42.658;23.350;2023-03-01T12:30:34;102.30;;;94.93;;
2035;SDS011;23642;42.658;23.350;2023-03-01T12:33:19;99.43;;;92.53;;
2035;SDS011;23642;42.658;23.350;2023-03-01T12:39:07;100.37;;;93.53;;
2035;SDS011;23642;42.658;23.350;2023-03-01T12:41:48;100.80;;;93.77;;
2035;SDS011;23642;42.658;23.350;2023-03-01T12:44:42;98.90;;;92.60;;
2035;SDS011;23642;42.658;23.350;2023-03-01T12:47:25;99.30;;;92.70;;
2035;SDS011;23642;42.658;23.350;2023-03-01T12:50:04;97.97;;;91.47;;
2035;SDS011;23642;42.658;23.350;2023-03-01T12:52:43;98.30;;;91.83;;
2035;SDS011;23642;42.658;23.350;2023-03-01T12:55:18;98.10;;;91.80;;
2035;SDS011;23642;42.658;23.350;2023-03-01T12:57:54;100.33;;;93.80;;
2035;SDS011;23642;42.658;23.350;2023-03-01T13:00:35;101.40;;;94.43;;
2035;SDS011;23642;42.658;23.350;2023-03-01T13:03:10;100.60;;;94.00;;
2035;SDS011;23642;42.658;23.350;2023-03-01T13:05:49;97.67;;;91.27;;
2035;SDS011;23642;42.658;23.350;2023-03-01T13:08:31;97.40;;;91.00;;
2035;SDS011;23642;42.658;23.350;2023-03-01T13:11:21;95.67;;;89.43;;
2035;SDS011;23642;42.658;23.350;2023-03-01T13:16:56;98.23;;;91.80;;
2035;SDS011;23642;42.658;23.350;2023-03-01T13:19:24;99.43;;;92.93;;
2035;SDS011;23642;42.658;23.350;2023-03-01T13:21:54;100.30;;;93.70;;
2035;SDS011;23642;42.658;23.350;2023-03-01T13:31:08;96.57;;;90.17;;
2035;SDS011;23642;42.658;23.350;2023-03-01T13:36:54;96.13;;;89.83;;
2035;SDS011;23642;42.658;23.350;2023-03-01T13:39:55;95.87;;;89.23;;
2035;SDS011;23642;42.658;23.350;2023-03-01T13:42:39;97.20;;;90.70;;
2035;SDS011;23642;42.658;23.350;2023-03-01T13:45:24;95.60;;;89.30;;
2035;SDS011;23642;42.658;23.350;2023-03-01T13:48:08;101.83;;;95.13;;
2035;SDS011;23642;42.658;23.350;2023-03-01T13:50:44;102.47;;;95.67;;
2035;SDS011;23642;42.658;23.350;2023-03-01T13:53:18;101.73;;;95.23;;
2035;SDS011;23642;42.658;23.350;2023-03-01T13:55:50;101.10;;;94.53;;
2035;SDS011;23642;42.658;23.350;2023-03-01T13:58:22;101.30;;;94.80;;
2035;SDS011;23642;42.658;23.350;2023-03-01T14:00:55;101.50;;;94.63;;
2035;SDS011;23642;42.658;23.350;2023-03-01T14:03:23;99.80;;;93.30;;
2035;SDS011;23642;42.658;23.350;2023-03-01T14:08:41;95.83;;;89.00;;
2035;SDS011;23642;42.658;23.350;2023-03-01T14:14:08;102.10;;;95.60;;
2035;SDS011;23642;42.658;23.350;2023-03-01T14:16:58;97.27;;;90.83;;
2035;SDS011;23642;42.658;23.350;2023-03-01T14:19:36;95.13;;;88.87;;
2035;SDS011;23642;42.658;23.350;2023-03-01T14:22:06;94.60;;;88.40;;
2035;SDS011;23642;42.658;23.350;2023-03-01T14:24:45;91.57;;;85.27;;
2035;SDS011;23642;42.658;23.350;2023-03-01T14:27:15;92.03;;;85.93;;
2035;SDS011;23642;42.658;23.350;2023-03-01T14:29:43;95.37;;;89.07;;
2035;SDS011;23642;42.658;23.350;2023-03-01T14:32:20;101.60;;;94.93;;
2035;SDS011;23642;42.658;23.350;2023-03-01T14:34:50;99.47;;;93.07;;
2035;SDS011;23642;42.658;23.350;2023-03-01T14:37:24;95.70;;;89.30;;
2035;SDS011;23642;42.658;23.350;2023-03-01T14:39:53;93.73;;;87.63;;
2035;SDS011;23642;42.658;23.350;2023-03-01T14:42:21;93.73;;;87.20;;
2035;SDS011;23642;42.658;23.350;2023-03-01T14:44:51;97.57;;;90.87;;
2035;SDS011;23642;42.658;23.350;2023-03-01T14:47:24;96.07;;;89.13;;
2035;SDS011;23642;42.658;23.350;2023-03-01T14:49:56;94.43;;;88.00;;
2035;SDS011;23642;42.658;23.350;2023-03-01T14:52:33;97.07;;;90.77;;
2035;SDS011;23642;42.658;23.350;2023-03-01T14:55:03;95.73;;;89.43;;
2035;SDS011;23642;42.658;23.350;2023-03-01T14:57:32;93.40;;;86.33;;
2035;SDS011;23642;42.658;23.350;2023-03-01T15:00:00;89.77;;;83.87;;
2035;SDS011;23642;42.658;23.350;2023-03-01T15:02:31;94.20;;;87.90;;
2035;SDS011;23642;42.658;23.350;2023-03-01T15:05:03;91.00;;;84.90;;
2035;SDS011;23642;42.658;23.350;2023-03-01T15:07:35;90.57;;;84.37;;
2035;SDS011;23642;42.658;23.350;2023-03-01T15:10:05;92.37;;;85.97;;
2035;SDS011;23642;42.658;23.350;2023-03-01T15:12:41;92.97;;;86.53;;
2035;SDS011;23642;42.658;23.350;2023-03-01T15:17:58;99.30;;;92.50;;
2035;SDS011;23642;42.658;23.350;2023-03-01T15:20:26;98.67;;;92.00;;